Time;durP1;ratioP1;P1;durP2;ratioP2;P2;SDS_P1;SDS_P2;PMS_P1;PMS_P2;Temp;Humidity;BMP_temperature;BMP_pressure;BME280_temperature;BME280_humidity;BME280_pressure;Samples;Min_cycle;Max_cycle;Signal;HPM_P1;HPM_P2
2023/01/17 00:00:05;;;;;;;5.13;0.85;;;;;;;13.16;91.42;99639.53;12676964;23;96726;-81
2023/01/17 00:10:29;;;;;;;3.17;0.98;;;;;;;13.25;91.13;99662.78;12676290;23;96524;-82
2023/01/17 00:15:33;;;;;;;3.58;0.85;;;;;;;13.30;91.02;99651.94;12675659;23;96678;-81
2023/01/17 00:26:03;;;;;;;6.38;1.10;;;;;;;13.36;90.82;99670.91;12676732;23;96566;-81
2023/01/17 01:34:30;;;;;;;13.68;2.55;;;;;;;13.47;89.26;99554.81;12675762;23;97046;-82
2023/01/17 01:39:33;;;;;;;18.40;2.97;;;;;;;13.50;88.95;99546.69;12675673;23;96576;-82
2023/01/17 01:44:45;;;;;;;19.02;3.28;;;;;;;13.45;88.64;99535.56;12676137;23;96889;-81
2023/01/17 01:49:50;;;;;;;16.20;2.85;;;;;;;13.41;89.29;99520.84;12676696;23;96612;-82
2023/01/17 01:54:58;;;;;;;14.32;2.90;;;;;;;13.46;89.04;99496.78;12675750;23;97446;-81
2023/01/17 02:00:05;;;;;;;22.00;3.50;;;;;;;13.40;89.34;99476.00;12675610;23;96724;-82
2023/01/17 02:05:13;;;;;;;13.30;2.25;;;;;;;13.40;90.07;99476.84;12673326;23;97464;-82
2023/01/17 02:10:16;;;;;;;11.65;2.50;;;;;;;13.47;89.84;99454.38;12675207;23;96585;-83
2023/01/17 02:15:23;;;;;;;14.73;3.00;;;;;;;13.45;89.41;99435.13;12674900;23;97075;-83
2023/01/17 02:21:21;;;;;;;19.45;4.00;;;;;;;13.47;89.41;99435.88;12675521;23;96590;-83
2023/01/17 02:26:45;;;;;;;12.70;2.40;;;;;;;13.51;89.33;99437.41;12628077;23;96655;-81
2023/01/17 02:31:55;;;;;;;10.23;2.45;;;;;;;13.48;89.73;99477.22;12674915;23;96640;-81
2023/01/17 02:37:04;;;;;;;7.78;1.20;;;;;;;13.35;90.29;99475.44;12675239;23;96587;-82
2023/01/17 02:42:14;;;;;;;3.58;0.57;;;;;;;13.35;89.37;99541.50;12675878;23;96548;-82
2023/01/17 02:47:23;;;;;;;4.30;0.80;;;;;;;13.18;86.81;99553.13;12675156;23;96553;-82
2023/01/17 02:52:49;;;;;;;4.30;1.05;;;;;;;13.10;86.70;99539.56;12674779;23;96604;-82
2023/01/17 02:58:06;;;;;;;10.52;1.80;;;;;;;13.08;86.09;99565.22;12673618;23;96676;-82
2023/01/17 03:03:20;;;;;;;20.55;3.78;;;;;;;13.03;86.06;99569.91;12674885;23;97062;-82
2023/01/17 03:08:25;;;;;;;22.40;3.63;;;;;;;13.10;85.34;99542.19;12674760;23;96659;-82
2023/01/17 03:13:28;;;;;;;20.98;4.55;;;;;;;13.08;85.59;99548.50;12675378;23;96599;-82
2023/01/17 03:18:33;;;;;;;22.25;4.10;;;;;;;13.03;85.39;99558.50;12677295;23;96591;-82
2023/01/17 03:23:36;;;;;;;28.88;5.40;;;;;;;13.11;84.37;99557.09;12677347;23;96616;-82
2023/01/17 03:28:41;;;;;;;30.77;6.20;;;;;;;13.17;84.59;99558.50;12677045;23;97246;-82
2023/01/17 03:33:45;;;;;;;33.75;5.88;;;;;;;13.14;84.68;99575.38;12677376;23;96665;-82
2023/01/17 03:38:48;;;;;;;30.70;6.30;;;;;;;13.22;84.20;99567.88;12676268;23;96475;-82
2023/01/17 03:43:52;;;;;;;33.38;6.68;;;;;;;13.28;83.90;99556.91;12677015;23;96553;-82
2023/01/17 03:48:56;;;;;;;31.02;6.60;;;;;;;13.24;83.37;99554.56;12675592;23;97397;-82
2023/01/17 03:54:00;;;;;;;32.85;6.28;;;;;;;13.29;83.21;99547.19;12677514;23;97170;-82
2023/01/17 03:59:03;;;;;;;40.73;7.60;;;;;;;13.26;83.78;99518.31;12676883;23;97093;-82
2023/01/17 04:04:08;;;;;;;26.65;6.85;;;;;;;13.27;83.29;99520.00;12676805;23;96567;-82
2023/01/17 04:09:11;;;;;;;30.00;6.43;;;;;;;13.29;82.35;99518.94;12676361;23;97237;-82
2023/01/17 04:14:14;;;;;;;33.40;6.70;;;;;;;13.30;82.35;99504.81;12676312;23;96709;-82
2023/01/17 04:19:19;;;;;;;32.60;6.03;;;;;;;13.28;81.34;99495.28;12676876;23;96480;-82
2023/01/17 04:24:22;;;;;;;29.42;6.32;;;;;;;13.32;80.56;99491.50;12677143;23;96708;-82
2023/01/17 04:29:25;;;;;;;22.30;5.10;;;;;;;13.28;80.37;99482.91;12676925;23;96604;-82
2023/01/17 04:34:30;;;;;;;24.58;5.53;;;;;;;13.26;80.09;99479.53;12676548;23;96569;-82
2023/01/17 04:39:33;;;;;;;27.67;5.75;;;;;;;12.91;82.85;99520.50;12674982;23;96848;-80
2023/01/17 04:44:36;;;;;;;20.58;4.50;;;;;;;12.62;84.70;99545.09;12676766;23;96889;-81
2023/01/17 04:49:40;;;;;;;24.15;4.93;;;;;;;12.58;84.22;99543.59;12676258;23;96629;-82
2023/01/17 04:54:48;;;;;;;17.17;3.60;;;;;;;12.43;84.12;99553.25;12675523;23;96695;-82
2023/01/17 04:59:52;;;;;;;16.40;2.80;;;;;;;12.41;83.36;99560.38;12676271;23;96616;-82
2023/01/17 05:04:56;;;;;;;13.63;2.97;;;;;;;12.25;83.76;99561.38;12676230;23;97148;-82
2023/01/17 05:10:00;;;;;;;19.25;3.13;;;;;;;12.23;83.15;99558.81;12675842;23;96548;-81
2023/01/17 05:15:04;;;;;;;17.15;3.35;;;;;;;12.27;82.33;99568.25;12677007;23;96609;-81
2023/01/17 05:20:10;;;;;;;16.45;3.40;;;;;;;12.22;82.88;99570.28;12676474;23;96614;-81
2023/01/17 05:25:14;;;;;;;15.75;3.67;;;;;;;12.24;83.06;99567.56;12676269;23;96960;-81
2023/01/17 05:30:18;;;;;;;20.45;3.92;;;;;;;12.28;82.18;99563.81;12674458;23;96638;-81
2023/01/17 05:35:25;;;;;;;25.92;5.55;;;;;;;12.27;82.83;99575.31;12675236;23;96619;-81
2023/01/17 05:40:29;;;;;;;18.58;3.80;;;;;;;12.25;82.62;99571.94;12675254;23;96567;-82
2023/01/17 05:45:34;;;;;;;18.33;3.83;;;;;;;12.24;83.13;99572.84;12676184;23;96671;-82
2023/01/17 05:50:38;;;;;;;20.50;4.27;;;;;;;12.15;81.42;99568.94;12675998;23;96643;-81
2023/01/17 05:55:42;;;;;;;28.10;5.18;;;;;;;12.24;81.86;99567.56;12676086;23;96887;-82
2023/01/17 06:00:46;;;;;;;18.67;3.83;;;;;;;12.25;81.55;99556.97;12675874;23;96592;-81
2023/01/17 06:05:50;;;;;;;18.27;4.38;;;;;;;12.21;80.16;99567.75;12676442;23;96527;-81
2023/01/17 06:10:54;;;;;;;20.73;3.75;;;;;;;12.20;79.66;99563.44;12675349;23;96639;-81
2023/01/17 06:16:01;;;;;;;22.92;4.15;;;;;;;12.12;78.61;99574.41;12675546;23;96649;-81
2023/01/17 06:21:06;;;;;;;17.52;3.70;;;;;;;12.13;78.87;99575.25;12674446;23;96706;-82
2023/01/17 06:26:09;;;;;;;18.98;3.53;;;;;;;12.04;77.17;99576.63;12675196;23;97228;-81
2023/01/17 06:31:12;;;;;;;25.23;4.15;;;;;;;11.94;76.43;99577.22;12675183;23;96606;-81
2023/01/17 06:36:17;;;;;;;19.00;3.72;;;;;;;11.81;76.69;99597.28;12675150;23;97510;-81
2023/01/17 06:41:22;;;;;;;16.30;3.40;;;;;;;11.69;76.72;99587.41;12674951;23;97174;-81
2023/01/17 06:46:25;;;;;;;19.90;3.67;;;;;;;11.58;77.04;99589.78;12675004;23;96816;-81
2023/01/17 06:51:29;;;;;;;18.23;3.75;;;;;;;11.56;77.43;99608.31;12677229;23;96572;-81
2023/01/17 06:56:33;;;;;;;19.17;3.53;;;;;;;11.59;77.21;99608.16;12678324;23;96573;-81
2023/01/17 07:01:36;;;;;;;18.20;3.75;;;;;;;11.64;77.02;99616.66;12677450;23;96604;-81
2023/01/17 07:06:41;;;;;;;14.88;3.75;;;;;;;11.65;76.79;99642.06;12677398;23;96530;-80
2023/01/17 07:11:44;;;;;;;14.95;3.35;;;;;;;11.66;75.39;99642.94;12675763;23;96885;-82
2023/01/17 07:16:48;;;;;;;14.48;3.42;;;;;;;11.70;74.64;99641.84;12677222;23;96648;-81
2023/01/17 07:21:54;;;;;;;18.20;3.70;;;;;;;11.79;74.77;99659.78;12677379;23;96675;-82
2023/01/17 07:26:57;;;;;;;14.05;2.63;;;;;;;11.34;75.91;99647.25;12677233;23;96595;-80
2023/01/17 07:32:02;;;;;;;17.58;3.05;;;;;;;11.22;77.92;99638.22;12676563;23;96781;-82
2023/01/17 07:37:06;;;;;;;12.32;3.15;;;;;;;11.19;78.67;99653.31;12676749;23;96606;-82
2023/01/17 07:42:10;;;;;;;16.33;3.10;;;;;;;11.05;78.38;99658.41;12676801;23;96562;-81
2023/01/17 07:47:13;;;;;;;13.93;2.70;;;;;;;11.17;77.17;99657.81;12678112;23;96518;-81
2023/01/17 07:52:17;;;;;;;9.52;3.00;;;;;;;11.20;76.78;99670.81;12677428;23;96824;-81
2023/01/17 07:57:20;;;;;;;13.30;2.65;;;;;;;11.12;78.10;99676.50;12676873;23;96572;-81
2023/01/17 08:02:24;;;;;;;14.18;3.05;;;;;;;11.11;78.57;99692.38;12675420;23;96625;-81
2023/01/17 08:07:28;;;;;;;18.23;3.38;;;;;;;11.15;78.99;99694.75;12676641;23;96770;-81
2023/01/17 08:12:32;;;;;;;13.10;2.90;;;;;;;11.18;78.34;99712.22;12676088;23;96530;-81
2023/01/17 08:17:36;;;;;;;12.97;2.97;;;;;;;11.04;78.92;99723.38;12676673;23;96672;-82
2023/01/17 08:22:40;;;;;;;11.73;2.70;;;;;;;11.07;78.76;99715.34;12677024;23;96911;-82
2023/01/17 08:27:43;;;;;;;13.23;2.78;;;;;;;11.07;77.36;99735.53;12676959;23;96663;-81
2023/01/17 08:32:46;;;;;;;12.57;2.85;;;;;;;11.14;75.25;99708.00;12676288;23;96604;-81
2023/01/17 08:37:55;;;;;;;9.07;2.20;;;;;;;11.19;74.30;99698.97;12677895;23;97082;-81
2023/01/17 08:43:00;;;;;;;14.07;2.75;;;;;;;11.31;74.41;99718.53;12676463;23;96691;-81
2023/01/17 08:48:03;;;;;;;;;;;;;;;11.28;71.62;99702.91;12676787;23;96520;-81
2023/01/17 08:53:07;;;;;;;12.98;2.92;;;;;;;11.42;73.32;99710.09;12675404;23;97169;-81
2023/01/17 08:58:10;;;;;;;14.65;3.15;;;;;;;11.45;72.74;99725.72;12676586;23;97399;-81
2023/01/17 09:03:13;;;;;;;9.27;2.53;;;;;;;11.36;72.28;99748.13;12676542;23;96610;-81
2023/01/17 09:08:18;;;;;;;13.25;2.53;;;;;;;10.91;74.83;99756.50;12675769;23;96610;-80
2023/01/17 09:13:21;;;;;;;14.90;2.33;;;;;;;10.77;76.92;99735.25;12675688;23;96569;-82
2023/01/17 09:18:24;;;;;;;13.63;2.63;;;;;;;10.81;76.56;99736.84;12676673;23;96932;-82
2023/01/17 09:23:30;;;;;;;10.68;2.30;;;;;;;10.92;76.45;99734.50;12676238;23;96554;-81
2023/01/17 09:28:39;;;;;;;8.38;2.10;;;;;;;11.02;75.53;99729.66;12676580;23;96631;-81
2023/01/17 09:33:42;;;;;;;10.13;2.08;;;;;;;11.23;76.40;99750.53;12675980;23;96474;-81
2023/01/17 09:38:47;;;;;;;14.95;2.60;;;;;;;11.21;75.76;99747.13;12674906;23;96592;-80
2023/01/17 09:43:55;;;;;;;8.07;2.22;;;;;;;11.18;74.90;99749.06;12674734;23;96568;-81
2023/01/17 09:49:04;;;;;;;14.25;3.15;;;;;;;11.20;73.32;99747.19;12676126;23;96945;-81
2023/01/17 09:54:20;;;;;;;15.25;2.78;;;;;;;11.22;73.63;99769.03;12675756;23;96636;-81
2023/01/17 09:59:31;;;;;;;16.13;2.83;;;;;;;11.10;75.08;99764.38;12676264;23;96655;-81
2023/01/17 10:04:54;;;;;;;9.23;2.47;;;;;;;11.03;77.00;99755.03;12674939;23;97151;-82
2023/01/17 10:10:13;;;;;;;11.95;2.78;;;;;;;11.07;77.44;99765.38;12675627;23;97378;-81
2023/01/17 10:15:42;;;;;;;11.32;3.10;;;;;;;11.09;76.95;99770.59;12675819;23;96773;-82
2023/01/17 10:20:51;;;;;;;18.30;3.42;;;;;;;11.01;77.99;99762.16;12664538;23;97039;-82
2023/01/17 10:25:59;;;;;;;10.98;2.85;;;;;;;10.99;78.06;99750.88;12674397;23;97295;-81
2023/01/17 10:31:06;;;;;;;12.65;2.45;;;;;;;11.07;78.11;99732.91;12675108;23;96524;-82
2023/01/17 10:36:15;;;;;;;11.65;2.15;;;;;;;11.08;79.42;99745.13;12674013;23;96599;-82
2023/01/17 10:41:25;;;;;;;9.20;2.28;;;;;;;11.11;78.20;99740.59;12675107;23;96868;-81
2023/01/17 10:46:35;;;;;;;10.50;2.28;;;;;;;11.16;76.74;99743.03;12674591;23;96613;-81
2023/01/17 10:51:58;;;;;;;8.90;2.45;;;;;;;11.25;76.60;99737.31;12675086;23;96604;-81
2023/01/17 10:57:04;;;;;;;13.45;2.67;;;;;;;11.38;76.97;99751.53;12674845;23;96638;-81
2023/01/17 11:02:15;;;;;;;;;;;;;;;11.41;76.05;99746.09;12675605;23;96548;-81
2023/01/17 11:07:20;;;;;;;11.73;3.33;;;;;;;11.32;76.19;99776.41;12675142;23;96736;-80
2023/01/17 11:12:29;;;;;;;9.15;2.42;;;;;;;10.81;77.54;99783.34;12675185;23;96761;-81
2023/01/17 11:17:33;;;;;;;6.53;1.50;;;;;;;10.79;78.06;99788.69;12674461;23;96548;-82
2023/01/17 11:22:37;;;;;;;7.53;1.60;;;;;;;10.83;78.85;99792.03;12674380;23;96592;-82
2023/01/17 11:27:43;;;;;;;7.13;1.60;;;;;;;10.80;78.46;99779.84;12673185;23;96519;-82
2023/01/17 11:32:52;;;;;;;10.90;2.33;;;;;;;10.78;77.74;99765.09;12674267;23;97168;-82
2023/01/17 11:38:05;;;;;;;14.85;2.17;;;;;;;10.83;78.39;99755.19;12677351;23;96920;-82
2023/01/17 11:43:22;;;;;;;9.65;2.75;;;;;;;10.76;78.20;99736.22;12676216;23;96633;-82
2023/01/17 11:48:25;;;;;;;12.13;2.50;;;;;;;11.04;77.97;99738.34;12677024;23;96659;-82
2023/01/17 11:53:31;;;;;;;15.95;2.65;;;;;;;11.05;78.03;99727.72;12677254;23;96568;-81
2023/01/17 11:58:40;;;;;;;11.25;2.45;;;;;;;11.20;78.46;99697.16;12677044;23;96537;-82
2023/01/17 12:04:06;;;;;;;13.73;3.13;;;;;;;11.05;77.91;99697.91;12677981;23;96492;-82
2023/01/17 12:09:21;;;;;;;14.18;2.67;;;;;;;10.84;79.19;99709.50;12658789;23;96591;-81
2023/01/17 12:14:33;;;;;;;13.48;2.45;;;;;;;10.78;79.05;99699.28;12677080;23;96539;-81
2023/01/17 12:19:59;;;;;;;8.18;2.25;;;;;;;10.65;81.00;99712.19;12675379;23;96634;-81
2023/01/17 12:25:13;;;;;;;11.55;2.78;;;;;;;10.72;81.04;99705.69;12676705;23;96595;-81
2023/01/17 12:30:36;;;;;;;9.70;2.40;;;;;;;10.65;80.99;99687.63;12676360;23;96749;-81
2023/01/17 12:35:45;;;;;;;9.93;2.45;;;;;;;10.72;81.79;99710.97;12676425;23;97292;-81
2023/01/17 12:40:54;;;;;;;13.35;2.65;;;;;;;10.55;80.25;99696.91;12676463;23;97343;-81
2023/01/17 12:46:04;;;;;;;13.23;2.50;;;;;;;10.96;80.00;99706.25;12676337;23;96806;-82
2023/01/17 12:51:14;;;;;;;9.05;2.30;;;;;;;10.97;79.43;99692.19;12676330;23;96569;-81
2023/01/17 12:56:24;;;;;;;13.55;2.78;;;;;;;11.06;78.84;99678.56;12677517;23;96958;-81
2023/01/17 13:01:31;;;;;;;8.65;2.53;;;;;;;11.12;78.52;99652.81;12676258;23;96625;-81
2023/01/17 13:06:45;;;;;;;12.02;2.33;;;;;;;11.13;78.35;99651.00;12676292;23;96510;-81
2023/01/17 13:11:53;;;;;;;14.32;2.75;;;;;;;11.18;78.31;99625.31;12673960;23;96684;-81
2023/01/17 13:17:00;;;;;;;10.82;2.47;;;;;;;11.18;77.80;99612.97;12676414;23;96802;-80
2023/01/17 13:22:07;;;;;;;10.60;3.40;;;;;;;11.22;78.11;99596.09;12676323;23;96505;-81
2023/01/17 13:27:38;;;;;;;17.10;3.50;;;;;;;11.10;77.81;99614.31;12676261;23;96513;-82
2023/01/17 13:33:15;;;;;;;13.93;3.78;;;;;;;10.99;80.18;99659.56;12676032;23;96559;-82
2023/01/17 13:38:41;;;;;;;13.73;2.40;;;;;;;10.79;79.45;99653.59;12676146;23;96604;-82
2023/01/17 13:44:20;;;;;;;8.35;2.00;;;;;;;10.84;77.77;99641.94;12611810;23;96654;-81
2023/01/17 13:49:42;;;;;;;9.63;2.00;;;;;;;10.92;77.86;99636.28;12676983;23;96632;-81
2023/01/17 13:54:48;;;;;;;10.63;2.00;;;;;;;11.06;75.43;99621.47;12676554;23;96747;-81
2023/01/17 13:59:52;;;;;;;9.55;2.40;;;;;;;11.10;75.97;99609.91;12674939;23;96527;-80
2023/01/17 14:05:13;;;;;;;8.50;1.77;;;;;;;10.98;74.72;99623.66;12674628;23;96548;-80
2023/01/17 14:10:37;;;;;;;9.88;2.35;;;;;;;10.90;74.77;99603.91;12675214;23;97164;-81
2023/01/17 14:15:49;;;;;;;11.82;2.78;;;;;;;10.78;74.89;99601.91;12675464;23;96625;-81
2023/01/17 14:21:08;;;;;;;13.35;3.03;;;;;;;10.86;76.68;99586.56;12675743;23;96939;-81
2023/01/17 14:26:22;;;;;;;13.60;2.97;;;;;;;10.83;76.62;99581.47;12675833;23;97064;-81
2023/01/17 14:31:26;;;;;;;12.80;2.92;;;;;;;10.92;76.05;99571.31;12675184;23;96645;-81
2023/01/17 14:36:33;;;;;;;12.82;3.58;;;;;;;10.91;76.26;99585.41;12675202;23;96610;-81
2023/01/17 14:41:37;;;;;;;15.20;3.22;;;;;;;10.80;76.11;99573.75;12675812;23;96523;-81
2023/01/17 14:46:40;;;;;;;12.63;2.65;;;;;;;10.91;76.05;99572.25;12675292;23;96596;-81
2023/01/17 14:51:59;;;;;;;12.13;2.97;;;;;;;10.95;76.88;99560.66;12674891;23;96558;-81
2023/01/17 14:57:15;;;;;;;15.88;2.78;;;;;;;10.94;75.69;99550.19;12672981;23;96583;-81
2023/01/17 15:02:19;;;;;;;20.02;3.75;;;;;;;10.73;76.02;99580.25;12675058;23;96933;-82
2023/01/17 15:07:25;;;;;;;18.55;3.47;;;;;;;10.52;78.60;99631.31;12674942;23;96637;-80
2023/01/17 15:12:28;;;;;;;8.40;2.75;;;;;;;10.31;78.51;99638.47;12677205;23;96954;-81
2023/01/17 15:17:31;;;;;;;9.18;2.42;;;;;;;10.03;78.60;99619.66;12676989;23;96623;-82
2023/01/17 15:22:36;;;;;;;9.80;2.40;;;;;;;10.12;77.82;99627.97;12677111;23;96599;-81
2023/01/17 15:27:39;;;;;;;11.10;2.20;;;;;;;10.07;78.15;99613.34;12677334;23;96606;-82
2023/01/17 15:32:48;;;;;;;10.35;2.55;;;;;;;9.99;78.97;99602.34;12677987;23;96692;-81
2023/01/17 15:37:57;;;;;;;9.00;2.53;;;;;;;10.10;79.09;99618.47;12676992;23;96560;-81
2023/01/17 15:43:00;;;;;;;9.93;2.50;;;;;;;10.02;79.59;99621.44;12676685;23;96545;-81
2023/01/17 15:48:39;;;;;;;10.85;2.80;;;;;;;9.98;78.64;99622.53;12675782;23;96587;-82
2023/01/17 15:53:44;;;;;;;14.52;2.50;;;;;;;10.08;79.37;99602.75;12669758;23;97059;-81
2023/01/17 15:58:49;;;;;;;13.48;3.35;;;;;;;10.05;78.81;99623.09;12676673;23;96495;-81
2023/01/17 16:03:54;;;;;;;12.10;2.42;;;;;;;10.10;79.59;99611.44;12677095;23;97367;-81
2023/01/17 16:08:58;;;;;;;11.15;2.60;;;;;;;10.13;79.06;99613.03;12676204;23;97144;-80
2023/01/17 16:14:01;;;;;;;11.97;2.70;;;;;;;10.20;78.32;99611.81;12676734;23;96713;-82
2023/01/17 16:19:06;;;;;;;9.52;2.40;;;;;;;10.05;78.19;99655.50;12676240;23;96580;-81
2023/01/17 16:24:11;;;;;;;15.82;6.18;;;;;;;10.06;78.48;99651.91;12677211;23;96630;-82
2023/01/17 16:29:14;;;;;;;;;;;;;;;9.81;79.25;99648.72;12676753;23;96576;-82
2023/01/17 16:34:17;;;;;;;9.48;2.20;;;;;;;10.00;79.04;99635.59;12676566;23;96539;-81
2023/01/17 16:39:22;;;;;;;9.00;2.60;;;;;;;9.94;78.22;99630.63;12674703;23;96684;-81
2023/01/17 16:44:25;;;;;;;10.95;2.47;;;;;;;10.02;76.56;99626.69;12676553;23;96605;-81
2023/01/17 16:49:31;;;;;;;12.48;3.28;;;;;;;9.99;77.66;99618.09;12676156;23;96587;-81
2023/01/17 16:54:36;;;;;;;9.05;2.50;;;;;;;9.97;77.07;99614.69;12676364;23;96500;-81
2023/01/17 16:59:40;;;;;;;10.50;2.83;;;;;;;9.97;76.36;99605.03;12676629;23;96621;-80
2023/01/17 17:04:52;;;;;;;15.65;3.67;;;;;;;9.86;76.64;99604.72;12676401;23;96640;-80
2023/01/17 17:09:57;;;;;;;13.05;3.20;;;;;;;9.87;76.78;99613.44;12675652;23;96951;-80
2023/01/17 17:15:00;;;;;;;9.52;2.38;;;;;;;9.83;76.60;99610.09;12677208;23;96849;-80
2023/01/17 17:20:04;;;;;;;14.05;3.03;;;;;;;9.97;76.45;99620.81;12676474;23;96872;-82
2023/01/17 17:25:10;;;;;;;18.00;3.50;;;;;;;9.93;77.13;99642.94;12676171;23;97508;-81
2023/01/17 17:30:14;;;;;;;14.98;3.28;;;;;;;9.83;76.66;99638.16;12674721;23;96494;-81
2023/01/17 17:35:17;;;;;;;13.43;3.42;;;;;;;9.69;78.21;99624.81;12676347;23;96951;-82
2023/01/17 17:40:22;;;;;;;17.38;3.95;;;;;;;9.56;77.82;99621.00;12675536;23;96592;-82
2023/01/17 17:45:25;;;;;;;17.67;3.30;;;;;;;9.56;77.34;99606.13;12675912;23;96804;-81
2023/01/17 17:50:28;;;;;;;13.30;3.47;;;;;;;9.45;77.50;99600.50;12675548;23;96644;-81
2023/01/17 17:55:34;;;;;;;14.20;3.00;;;;;;;9.40;77.01;99607.72;12676221;23;96547;-81
2023/01/17 18:00:37;;;;;;;15.48;3.30;;;;;;;9.41;76.30;99613.84;12675823;23;96561;-81
2023/01/17 18:05:40;;;;;;;11.23;3.00;;;;;;;9.44;76.03;99600.56;12676780;23;96707;-81
2023/01/17 18:10:45;;;;;;;16.25;3.10;;;;;;;9.45;76.03;99608.38;12675688;23;96876;-81
2023/01/17 18:15:49;;;;;;;15.07;3.65;;;;;;;9.45;75.99;99631.19;12675521;23;96587;-81
2023/01/17 18:20:52;;;;;;;14.20;3.13;;;;;;;9.38;76.55;99633.19;12674429;23;96572;-81
2023/01/17 18:25:56;;;;;;;17.13;3.05;;;;;;;9.33;77.65;99637.81;12675385;23;96539;-82
2023/01/17 18:31:05;;;;;;;17.20;3.90;;;;;;;9.32;77.40;99640.50;12674897;23;96679;-82
2023/01/17 18:36:10;;;;;;;14.32;3.20;;;;;;;9.34;77.79;99623.78;12675262;23;96792;-82
2023/01/17 18:41:17;;;;;;;20.52;3.33;;;;;;;9.42;77.43;99636.53;12674790;23;96553;-81
2023/01/17 18:46:20;;;;;;;10.05;2.67;;;;;;;9.60;77.73;99657.59;12674307;23;96606;-82
2023/01/17 18:51:24;;;;;;;106.25;69.93;;;;;;;9.38;78.20;99648.13;12674795;23;97096;-82
2023/01/17 18:56:29;;;;;;;14.02;4.47;;;;;;;9.34;78.26;99672.78;12674741;23;97324;-81
2023/01/17 19:01:34;;;;;;;11.95;4.07;;;;;;;9.44;77.89;99674.09;12674654;23;96495;-81
2023/01/17 19:06:40;;;;;;;12.05;3.50;;;;;;;9.48;78.31;99675.66;12674726;23;96545;-81
2023/01/17 19:11:46;;;;;;;16.83;3.25;;;;;;;9.35;78.42;99667.47;12673121;23;97240;-81
2023/01/17 19:16:49;;;;;;;13.52;3.25;;;;;;;9.37;77.71;99664.78;12674615;23;96499;-81
2023/01/17 19:21:52;;;;;;;14.93;4.63;;;;;;;9.48;77.27;99691.44;12673565;23;96577;-81
2023/01/17 19:26:57;;;;;;;6.82;2.40;;;;;;;9.37;77.45;99685.78;12674393;23;96545;-82
2023/01/17 19:32:00;;;;;;;9.63;2.97;;;;;;;9.21;76.75;99680.31;12634826;23;96695;-82
2023/01/17 19:37:04;;;;;;;13.50;3.08;;;;;;;9.31;76.30;99681.66;12612920;23;96571;-82
2023/01/17 19:42:14;;;;;;;14.37;2.93;;;;;;;9.31;76.54;99671.16;12613047;23;96971;-81
2023/01/17 19:47:17;;;;;;;8.32;2.60;;;;;;;9.40;76.63;99664.66;12613182;23;96505;-81
2023/01/17 19:52:22;;;;;;;13.32;2.72;;;;;;;9.45;76.41;99655.63;12612567;23;96542;-81
2023/01/17 19:57:33;;;;;;;13.15;2.60;;;;;;;9.43;76.56;99688.16;12614060;23;96526;-80
2023/01/17 20:02:37;;;;;;;13.68;3.05;;;;;;;9.50;76.95;99721.94;12614281;23;96514;-81
2023/01/17 20:07:40;;;;;;;8.55;2.55;;;;;;;9.25;76.92;99718.69;12615586;23;96827;-82
2023/01/17 20:12:45;;;;;;;9.02;2.67;;;;;;;9.03;77.70;99709.97;12614864;23;96746;-82
2023/01/17 20:17:48;;;;;;;11.40;3.25;;;;;;;9.13;78.27;99678.03;12615238;23;96554;-82
2023/01/17 20:22:52;;;;;;;7.15;2.70;;;;;;;9.11;78.07;99677.25;12615231;23;96588;-81
2023/01/17 20:27:57;;;;;;;9.18;2.45;;;;;;;9.09;77.72;99693.97;12615859;23;96764;-81
2023/01/17 20:33:00;;;;;;;;;;;;;;;8.97;77.75;99734.69;12667142;23;97044;-80
2023/01/17 20:38:03;;;;;;;9.05;2.25;;;;;;;9.00;77.80;99721.44;12678427;23;96748;-81
2023/01/17 20:43:08;;;;;;;6.95;2.67;;;;;;;8.67;79.04;99728.06;12676190;23;96708;-82
2023/01/17 20:48:11;;;;;;;;;;;;;;;8.72;77.86;99718.25;12676982;23;96533;-81
2023/01/17 20:53:14;;;;;;;7.35;2.22;;;;;;;8.70;78.46;99746.34;12675671;23;96615;-81
2023/01/17 20:58:20;;;;;;;8.63;2.20;;;;;;;8.67;79.00;99777.06;12676777;23;96484;-81
2023/01/17 21:03:27;;;;;;;7.25;2.50;;;;;;;8.38;78.78;99793.91;12676702;23;96666;-81
2023/01/17 21:08:31;;;;;;;5.85;1.67;;;;;;;8.24;78.04;99777.03;12675888;23;96622;-82
2023/01/17 21:13:36;;;;;;;6.25;1.98;;;;;;;8.21;78.41;99766.63;12676199;23;96575;-82
2023/01/17 21:18:39;;;;;;;6.43;1.70;;;;;;;8.18;78.95;99764.13;12676798;23;96985;-82
2023/01/17 21:23:43;;;;;;;7.00;1.67;;;;;;;8.35;78.85;99769.59;12676250;23;96586;-81
2023/01/17 21:28:49;;;;;;;6.80;1.50;;;;;;;8.32;78.95;99759.22;12677423;23;96797;-81
2023/01/17 21:33:54;;;;;;;7.35;1.65;;;;;;;8.39;79.18;99755.47;12676183;23;96601;-81
2023/01/17 21:38:59;;;;;;;5.97;1.70;;;;;;;8.42;79.27;99750.94;12675746;23;99564;-81
2023/01/17 21:44:06;;;;;;;9.57;1.90;;;;;;;8.38;79.65;99759.84;12675128;23;96566;-82
2023/01/17 21:49:10;;;;;;;5.63;1.85;;;;;;;8.35;79.79;99769.59;12675984;23;96611;-82
2023/01/17 21:54:14;;;;;;;5.90;1.80;;;;;;;8.29;80.32;99777.69;12676365;23;96954;-81
2023/01/17 21:59:19;;;;;;;6.43;1.88;;;;;;;8.23;80.43;99783.16;12675640;23;96596;-81
2023/01/17 22:04:23;;;;;;;6.28;1.98;;;;;;;8.26;80.39;99783.03;12675280;23;97085;-81
2023/01/17 22:09:26;;;;;;;8.05;1.73;;;;;;;8.21;80.30;99777.09;12675467;23;96790;-81
2023/01/17 22:14:31;;;;;;;7.40;2.15;;;;;;;8.12;79.90;99780.09;12675769;23;96594;-80
2023/01/17 22:19:34;;;;;;;12.23;1.80;;;;;;;8.10;80.34;99782.75;12675930;23;96530;-80
2023/01/17 22:24:39;;;;;;;6.95;1.90;;;;;;;8.13;80.18;99777.41;12676001;23;96814;-80
2023/01/17 22:29:43;;;;;;;6.53;1.97;;;;;;;8.16;79.93;99781.69;12675381;23;97346;-80
2023/01/17 22:34:47;;;;;;;7.88;1.75;;;;;;;8.09;80.19;99798.53;12674490;23;96473;-80
2023/01/17 22:39:50;;;;;;;6.95;2.50;;;;;;;8.11;80.88;99762.66;12675341;23;96517;-80
2023/01/17 22:44:55;;;;;;;8.52;2.47;;;;;;;8.07;81.58;99793.34;12675203;23;96858;-81
2023/01/17 22:49:58;;;;;;;7.18;2.22;;;;;;;8.19;81.41;99789.41;12674553;23;96535;-82
2023/01/17 22:55:01;;;;;;;5.95;2.58;;;;;;;8.29;81.13;99844.06;12675229;23;96557;-82
2023/01/17 23:00:13;;;;;;;7.40;2.38;;;;;;;8.19;80.82;99887.25;12675156;23;98412;-81
2023/01/17 23:05:16;;;;;;;11.63;2.22;;;;;;;8.15;79.89;99854.19;12675406;23;96804;-82
2023/01/17 23:20:59;;;;;;;6.07;2.05;;;;;;;7.99;80.17;99853.06;12674591;23;96534;-81
2023/01/17 23:26:02;;;;;;;7.72;2.22;;;;;;;8.05;80.79;99863.28;12673413;23;96593;-81
2023/01/17 23:31:09;;;;;;;6.80;2.08;;;;;;;8.10;80.62;99879.69;12675874;23;96502;-81
2023/01/17 23:36:13;;;;;;;7.13;2.13;;;;;;;8.30;80.38;99842.31;12677363;23;96648;-81
2023/01/17 23:46:38;;;;;;;8.57;2.28;;;;;;;7.96;80.87;99848.75;12677438;23;96479;-81
2023/01/17 23:51:41;;;;;;;6.40;2.45;;;;;;;7.80;81.66;99850.19;12677242;23;97499;-81
2023/01/17 23:56:44;;;;;;;7.40;2.53;;;;;;;7.81;81.42;99845.81;12676992;23;96561;-81
